sensor_id;sensor_type;location;lat;lon;timestamp;pressure;altitude;pressure_sealevel;temperature;humidity
15529;BME280;7866;52.280;9.500;2024-01-16T00:04:57;99112.19;;;1.56;93.24
15529;BME280;7866;52.280;9.500;2024-01-16T00:09:58;99123.72;;;1.45;93.36
15529;BME280;7866;52.280;9.500;2024-01-16T00:15:00;99130.34;;;1.59;93.66
15529;BME280;7866;52.280;9.500;2024-01-16T00:20:04;99131.88;;;1.52;94.03
15529;BME280;7866;52.280;9.500;2024-01-16T00:25:07;99152.72;;;1.55;94.11
15529;BME280;7866;52.280;9.500;2024-01-16T00:30:10;99154.69;;;1.53;93.81
15529;BME280;7866;52.280;9.500;2024-01-16T00:35:13;99145.22;;;1.50;93.47
15529;BME280;7866;52.280;9.500;2024-01-16T00:40:15;99152.59;;;1.46;93.29
15529;BME280;7866;52.280;9.500;2024-01-16T00:45:17;99157.47;;;1.41;93.05
15529;BME280;7866;52.280;9.500;2024-01-16T00:50:20;99164.28;;;1.44;93.15
15529;BME280;7866;52.280;9.500;2024-01-16T00:55:22;99160.78;;;1.43;92.63
15529;BME280;7866;52.280;9.500;2024-01-16T01:00:23;99172.84;;;1.46;92.93
15529;BME280;7866;52.280;9.500;2024-01-16T01:05:26;99186.31;;;1.43;92.76
15529;BME280;7866;52.280;9.500;2024-01-16T01:10:29;99180.91;;;1.35;92.89
15529;BME280;7866;52.280;9.500;2024-01-16T01:15:31;99188.69;;;1.46;93.00
15529;BME280;7866;52.280;9.500;2024-01-16T01:20:34;99193.97;;;1.46;93.17
15529;BME280;7866;52.280;9.500;2024-01-16T01:25:35;99204.38;;;1.47;92.49
15529;BME280;7866;52.280;9.500;2024-01-16T01:30:37;99213.28;;;1.37;93.05
15529;BME280;7866;52.280;9.500;2024-01-16T01:35:40;99217.00;;;1.34;93.11
15529;BME280;7866;52.280;9.500;2024-01-16T01:40:42;99225.63;;;1.36;92.95
15529;BME280;7866;52.280;9.500;2024-01-16T01:45:43;99227.13;;;1.39;92.40
15529;BME280;7866;52.280;9.500;2024-01-16T01:50:46;99238.53;;;1.30;92.67
15529;BME280;7866;52.280;9.500;2024-01-16T01:55:48;99249.50;;;1.25;92.12
15529;BME280;7866;52.280;9.500;2024-01-16T02:00:50;99248.66;;;1.25;92.66
15529;BME280;7866;52.280;9.500;2024-01-16T02:05:53;99255.28;;;1.19;92.21
15529;BME280;7866;52.280;9.500;2024-01-16T02:10:55;99252.66;;;1.19;92.14
15529;BME280;7866;52.280;9.500;2024-01-16T02:15:57;99246.56;;;1.18;91.39
15529;BME280;7866;52.280;9.500;2024-01-16T02:21:03;99272.09;;;1.18;91.93
15529;BME280;7866;52.280;9.500;2024-01-16T02:26:08;99273.47;;;1.12;91.64
15529;BME280;7866;52.280;9.500;2024-01-16T02:31:10;99274.44;;;1.11;90.96
15529;BME280;7866;52.280;9.500;2024-01-16T02:36:11;99273.47;;;1.12;90.38
15529;BME280;7866;52.280;9.500;2024-01-16T02:41:15;99269.44;;;1.08;91.15
15529;BME280;7866;52.280;9.500;2024-01-16T02:46:17;99274.72;;;1.08;90.83
15529;BME280;7866;52.280;9.500;2024-01-16T02:51:18;99276.22;;;1.01;90.79
15529;BME280;7866;52.280;9.500;2024-01-16T02:56:21;99290.13;;;1.13;91.39
15529;BME280;7866;52.280;9.500;2024-01-16T03:01:23;99301.59;;;1.02;90.48
15529;BME280;7866;52.280;9.500;2024-01-16T03:06:25;99297.03;;;1.04;90.88
15529;BME280;7866;52.280;9.500;2024-01-16T03:11:30;99299.13;;;1.01;90.99
15529;BME280;7866;52.280;9.500;2024-01-16T03:16:32;99302.50;;;0.82;90.27
15529;BME280;7866;52.280;9.500;2024-01-16T03:21:34;99301.28;;;0.86;90.46
15529;BME280;7866;52.280;9.500;2024-01-16T03:26:37;99295.97;;;0.76;90.61
15529;BME280;7866;52.280;9.500;2024-01-16T03:31:38;99301.69;;;0.81;90.28
15529;BME280;7866;52.280;9.500;2024-01-16T03:36:40;99299.28;;;0.78;91.14
15529;BME280;7866;52.280;9.500;2024-01-16T03:41:43;99300.84;;;0.81;91.07
15529;BME280;7866;52.280;9.500;2024-01-16T03:46:44;99311.63;;;0.78;91.34
15529;BME280;7866;52.280;9.500;2024-01-16T03:51:46;99312.72;;;0.75;90.93
15529;BME280;7866;52.280;9.500;2024-01-16T03:56:49;99322.19;;;0.78;90.91
15529;BME280;7866;52.280;9.500;2024-01-16T04:01:51;99331.91;;;0.77;91.64
15529;BME280;7866;52.280;9.500;2024-01-16T04:06:53;99330.59;;;0.71;90.86
15529;BME280;7866;52.280;9.500;2024-01-16T04:11:55;99329.34;;;0.66;91.82
15529;BME280;7866;52.280;9.500;2024-01-16T04:16:57;99331.16;;;0.65;92.12
15529;BME280;7866;52.280;9.500;2024-01-16T04:21:59;99332.38;;;0.61;91.90
15529;BME280;7866;52.280;9.500;2024-01-16T04:27:03;99342.50;;;0.66;91.85
15529;BME280;7866;52.280;9.500;2024-01-16T04:32:05;99339.63;;;0.69;92.17
15529;BME280;7866;52.280;9.500;2024-01-16T04:37:06;99343.09;;;0.69;92.06
15529;BME280;7866;52.280;9.500;2024-01-16T04:42:09;99350.44;;;0.76;92.64
15529;BME280;7866;52.280;9.500;2024-01-16T04:47:12;99341.06;;;0.83;91.54
15529;BME280;7866;52.280;9.500;2024-01-16T04:52:13;99332.72;;;0.78;91.38
15529;BME280;7866;52.280;9.500;2024-01-16T04:57:17;99332.72;;;0.78;91.44
15529;BME280;7866;52.280;9.500;2024-01-16T05:02:18;99346.03;;;0.76;91.70
15529;BME280;7866;52.280;9.500;2024-01-16T05:07:23;99337.75;;;0.81;91.90
15529;BME280;7866;52.280;9.500;2024-01-16T05:12:26;99346.34;;;0.83;91.31
15529;BME280;7866;52.280;9.500;2024-01-16T05:17:27;99344.34;;;0.75;91.79
15529;BME280;7866;52.280;9.500;2024-01-16T05:22:29;99349.03;;;0.71;92.25
15529;BME280;7866;52.280;9.500;2024-01-16T05:27:32;99357.94;;;0.70;92.51
15529;BME280;7866;52.280;9.500;2024-01-16T05:32:34;99351.00;;;0.69;92.97
15529;BME280;7866;52.280;9.500;2024-01-16T05:37:35;99345.53;;;0.61;93.07
15529;BME280;7866;52.280;9.500;2024-01-16T05:42:39;99346.69;;;0.68;92.68
15529;BME280;7866;52.280;9.500;2024-01-16T05:47:40;99348.63;;;0.66;93.04
15529;BME280;7866;52.280;9.500;2024-01-16T05:52:42;99354.84;;;0.65;93.31
15529;BME280;7866;52.280;9.500;2024-01-16T05:57:45;99349.03;;;0.71;92.57
15529;BME280;7866;52.280;9.500;2024-01-16T06:02:47;99354.84;;;0.65;92.75
15529;BME280;7866;52.280;9.500;2024-01-16T06:07:48;99357.59;;;0.64;92.67
15529;BME280;7866;52.280;9.500;2024-01-16T06:12:51;99359.28;;;0.65;93.48
15529;BME280;7866;52.280;9.500;2024-01-16T06:17:53;99353.56;;;0.81;92.72
15529;BME280;7866;52.280;9.500;2024-01-16T06:22:55;99359.41;;;0.84;93.13
15529;BME280;7866;52.280;9.500;2024-01-16T06:27:58;99353.72;;;0.89;92.92
15529;BME280;7866;52.280;9.500;2024-01-16T06:33:00;99355.00;;;0.94;92.93
15529;BME280;7866;52.280;9.500;2024-01-16T06:38:01;99367.88;;;0.88;93.23
15529;BME280;7866;52.280;9.500;2024-01-16T06:43:04;99364.53;;;0.86;93.06
15529;BME280;7866;52.280;9.500;2024-01-16T06:48:07;99361.31;;;0.82;92.91
15529;BME280;7866;52.280;9.500;2024-01-16T06:53:09;99371.03;;;0.82;92.73
15529;BME280;7866;52.280;9.500;2024-01-16T06:58:12;99371.53;;;0.76;93.79
15529;BME280;7866;52.280;9.500;2024-01-16T07:03:14;99371.53;;;0.76;92.73
15529;BME280;7866;52.280;9.500;2024-01-16T07:08:15;99375.56;;;0.80;93.75
15529;BME280;7866;52.280;9.500;2024-01-16T07:13:18;99373.81;;;0.80;93.27
15529;BME280;7866;52.280;9.500;2024-01-16T07:18:20;99382.06;;;0.76;93.34
15529;BME280;7866;52.280;9.500;2024-01-16T07:23:22;99371.03;;;0.82;92.30
15529;BME280;7866;52.280;9.500;2024-01-16T07:28:25;99384.47;;;0.79;92.78
15529;BME280;7866;52.280;9.500;2024-01-16T07:33:26;99387.81;;;0.81;92.36
15529;BME280;7866;52.280;9.500;2024-01-16T07:38:28;99391.78;;;0.75;92.79
15529;BME280;7866;52.280;9.500;2024-01-16T07:43:31;99381.31;;;0.85;92.48
15529;BME280;7866;52.280;9.500;2024-01-16T07:48:33;99378.28;;;0.89;92.37
15529;BME280;7866;52.280;9.500;2024-01-16T07:53:35;99382.75;;;0.98;91.91
15529;BME280;7866;52.280;9.500;2024-01-16T07:58:37;99392.63;;;0.96;91.29
15529;BME280;7866;52.280;9.500;2024-01-16T08:03:39;99394.97;;;0.99;90.89
15529;BME280;7866;52.280;9.500;2024-01-16T08:08:41;99388.81;;;0.89;91.46
15529;BME280;7866;52.280;9.500;2024-01-16T08:13:44;99396.50;;;1.02;91.22
15529;BME280;7866;52.280;9.500;2024-01-16T08:18:45;99398.63;;;1.08;91.13
15529;BME280;7866;52.280;9.500;2024-01-16T08:23:47;99390.00;;;1.06;91.18
15529;BME280;7866;52.280;9.500;2024-01-16T08:28:50;99404.75;;;1.09;91.42
15529;BME280;7866;52.280;9.500;2024-01-16T08:33:52;99406.44;;;1.19;90.68
15529;BME280;7866;52.280;9.500;2024-01-16T08:38:56;99401.44;;;1.16;90.10
15529;BME280;7866;52.280;9.500;2024-01-16T08:43:59;99403.50;;;1.13;90.14
15529;BME280;7866;52.280;9.500;2024-01-16T08:49:01;99403.13;;;1.27;89.93
15529;BME280;7866;52.280;9.500;2024-01-16T08:54:02;99404.25;;;1.25;90.45
15529;BME280;7866;52.280;9.500;2024-01-16T08:59:05;99408.03;;;1.32;90.42
15529;BME280;7866;52.280;9.500;2024-01-16T09:04:07;99405.50;;;1.30;89.84
15529;BME280;7866;52.280;9.500;2024-01-16T09:09:08;99406.09;;;1.34;89.76
15529;BME280;7866;52.280;9.500;2024-01-16T09:14:11;99407.63;;;1.36;89.52
15529;BME280;7866;52.280;9.500;2024-01-16T09:19:13;99410.13;;;1.47;89.09
15529;BME280;7866;52.280;9.500;2024-01-16T09:24:15;99409.59;;;1.44;89.55
15529;BME280;7866;52.280;9.500;2024-01-16T09:29:18;99404.03;;;1.47;89.30
15529;BME280;7866;52.280;9.500;2024-01-16T09:34:19;99401.84;;;1.52;88.92
15529;BME280;7866;52.280;9.500;2024-01-16T09:39:21;99411.16;;;1.56;88.69
15529;BME280;7866;52.280;9.500;2024-01-16T09:44:24;99412.16;;;1.65;88.99
15529;BME280;7866;52.280;9.500;2024-01-16T09:49:25;99405.66;;;1.79;88.68
15529;BME280;7866;52.280;9.500;2024-01-16T09:54:27;99413.41;;;1.70;89.09
15529;BME280;7866;52.280;9.500;2024-01-16T09:59:31;99406.94;;;1.84;88.75
15529;BME280;7866;52.280;9.500;2024-01-16T10:04:34;99412.47;;;1.81;88.08
15529;BME280;7866;52.280;9.500;2024-01-16T10:09:35;99412.09;;;2.05;86.96
15529;BME280;7866;52.280;9.500;2024-01-16T10:14:39;99416.69;;;2.13;86.67
15529;BME280;7866;52.280;9.500;2024-01-16T10:19:47;99411.13;;;2.26;86.83
15529;BME280;7866;52.280;9.500;2024-01-16T10:24:49;99427.66;;;2.47;85.76
15529;BME280;7866;52.280;9.500;2024-01-16T10:29:56;99406.69;;;2.36;85.06
15529;BME280;7866;52.280;9.500;2024-01-16T10:35:02;99413.59;;;2.27;84.76
15529;BME280;7866;52.280;9.500;2024-01-16T10:40:05;99420.84;;;2.54;84.65
15529;BME280;7866;52.280;9.500;2024-01-16T10:45:16;99423.34;;;2.27;84.57
15529;BME280;7866;52.280;9.500;2024-01-16T10:50:19;99422.78;;;2.42;84.91
15529;BME280;7866;52.280;9.500;2024-01-16T10:55:22;99414.81;;;2.81;84.97
15529;BME280;7866;52.280;9.500;2024-01-16T11:00:25;99424.88;;;2.58;84.47
15529;BME280;7866;52.280;9.500;2024-01-16T11:05:28;99430.28;;;2.47;84.37
15529;BME280;7866;52.280;9.500;2024-01-16T11:10:34;99421.97;;;2.42;84.65
15529;BME280;7866;52.280;9.500;2024-01-16T11:15:38;99429.19;;;2.30;84.51
15529;BME280;7866;52.280;9.500;2024-01-16T11:20:41;99432.38;;;2.34;84.85
15529;BME280;7866;52.280;9.500;2024-01-16T11:25:44;99435.88;;;2.25;84.17
15529;BME280;7866;52.280;9.500;2024-01-16T11:30:47;99434.59;;;2.09;84.41
15529;BME280;7866;52.280;9.500;2024-01-16T11:35:49;99425.28;;;2.05;84.99
15529;BME280;7866;52.280;9.500;2024-01-16T11:40:51;99424.72;;;2.31;83.96
15529;BME280;7866;52.280;9.500;2024-01-16T11:45:54;99435.59;;;2.28;83.68
15529;BME280;7866;52.280;9.500;2024-01-16T11:50:55;99439.91;;;2.38;84.63
15529;BME280;7866;52.280;9.500;2024-01-16T12:01:27;99436.13;;;2.31;84.50
15529;BME280;7866;52.280;9.500;2024-01-16T12:06:30;99445.44;;;2.35;84.52
15529;BME280;7866;52.280;9.500;2024-01-16T12:11:31;99436.56;;;2.27;84.66
15529;BME280;7866;52.280;9.500;2024-01-16T12:16:34;99433.66;;;2.20;85.26
15529;BME280;7866;52.280;9.500;2024-01-16T12:21:39;99430.16;;;2.00;86.08
15529;BME280;7866;52.280;9.500;2024-01-16T12:26:41;99426.25;;;2.14;86.50
15529;BME280;7866;52.280;9.500;2024-01-16T12:31:44;99427.09;;;2.14;85.75
15529;BME280;7866;52.280;9.500;2024-01-16T12:36:45;99437.78;;;2.03;86.25
15529;BME280;7866;52.280;9.500;2024-01-16T12:41:47;99426.38;;;2.03;86.61
15529;BME280;7866;52.280;9.500;2024-01-16T12:46:55;99409.44;;;2.05;86.59
15529;BME280;7866;52.280;9.500;2024-01-16T12:52:19;99421.94;;;2.22;86.56
15529;BME280;7866;52.280;9.500;2024-01-16T12:57:21;99394.72;;;2.12;86.30
15529;BME280;7866;52.280;9.500;2024-01-16T13:02:25;99396.13;;;2.16;86.49
15529;BME280;7866;52.280;9.500;2024-01-16T13:07:27;99388.16;;;2.07;86.33
15529;BME280;7866;52.280;9.500;2024-01-16T13:12:30;99393.56;;;1.95;86.82
15529;BME280;7866;52.280;9.500;2024-01-16T13:17:35;99386.09;;;2.10;87.40
15529;BME280;7866;52.280;9.500;2024-01-16T13:22:36;99385.25;;;2.00;87.00
15529;BME280;7866;52.280;9.500;2024-01-16T13:27:38;99387.47;;;1.95;86.39
15529;BME280;7866;52.280;9.500;2024-01-16T13:32:41;99383.72;;;1.88;86.96
15529;BME280;7866;52.280;9.500;2024-01-16T13:37:43;99376.06;;;1.85;86.67
15529;BME280;7866;52.280;9.500;2024-01-16T13:42:44;99370.53;;;1.88;86.27
15529;BME280;7866;52.280;9.500;2024-01-16T13:47:48;99361.63;;;1.89;86.76
15529;BME280;7866;52.280;9.500;2024-01-16T13:52:49;99347.44;;;1.70;86.90
15529;BME280;7866;52.280;9.500;2024-01-16T13:57:52;99346.63;;;1.80;87.10
15529;BME280;7866;52.280;9.500;2024-01-16T14:02:55;99353.97;;;1.86;87.17
15529;BME280;7866;52.280;9.500;2024-01-16T14:07:57;99344.41;;;1.85;86.96
15529;BME280;7866;52.280;9.500;2024-01-16T14:12:59;99348.03;;;1.84;87.18
15529;BME280;7866;52.280;9.500;2024-01-16T14:18:02;99356.31;;;1.79;87.32
15529;BME280;7866;52.280;9.500;2024-01-16T14:23:04;99340.34;;;1.71;86.82
15529;BME280;7866;52.280;9.500;2024-01-16T14:28:05;99343.41;;;1.66;87.04
15529;BME280;7866;52.280;9.500;2024-01-16T14:33:08;99350.78;;;1.72;87.40
15529;BME280;7866;52.280;9.500;2024-01-16T14:38:10;99350.19;;;1.59;87.46
15529;BME280;7866;52.280;9.500;2024-01-16T14:43:12;99352.28;;;1.56;87.93
15529;BME280;7866;52.280;9.500;2024-01-16T14:48:16;99362.53;;;1.49;88.33
15529;BME280;7866;52.280;9.500;2024-01-16T14:53:18;99366.84;;;1.50;88.60
15529;BME280;7866;52.280;9.500;2024-01-16T14:58:20;99374.44;;;1.43;90.18
15529;BME280;7866;52.280;9.500;2024-01-16T15:03:24;99382.34;;;1.34;90.52
15529;BME280;7866;52.280;9.500;2024-01-16T15:08:26;99384.84;;;1.35;91.56
15529;BME280;7866;52.280;9.500;2024-01-16T15:13:28;99378.97;;;1.22;91.89
15529;BME280;7866;52.280;9.500;2024-01-16T15:18:31;99387.72;;;1.22;93.29
15529;BME280;7866;52.280;9.500;2024-01-16T15:23:33;99380.06;;;1.19;93.50
15529;BME280;7866;52.280;9.500;2024-01-16T15:28:35;99380.03;;;1.10;93.65
15529;BME280;7866;52.280;9.500;2024-01-16T15:33:38;99383.72;;;0.97;94.32
15529;BME280;7866;52.280;9.500;2024-01-16T15:38:39;99383.00;;;0.95;94.49
15529;BME280;7866;52.280;9.500;2024-01-16T15:43:41;99384.41;;;0.99;95.39
15529;BME280;7866;52.280;9.500;2024-01-16T15:48:44;99382.19;;;0.95;95.28
15529;BME280;7866;52.280;9.500;2024-01-16T15:53:45;99374.66;;;0.90;94.76
15529;BME280;7866;52.280;9.500;2024-01-16T15:58:47;99380.38;;;0.95;94.95
15529;BME280;7866;52.280;9.500;2024-01-16T16:03:51;99369.47;;;1.00;95.04
15529;BME280;7866;52.280;9.500;2024-01-16T16:08:52;99373.00;;;0.89;94.93
15529;BME280;7866;52.280;9.500;2024-01-16T16:13:54;99353.72;;;0.89;94.64
15529;BME280;7866;52.280;9.500;2024-01-16T16:18:57;99348.19;;;0.92;94.14
15529;BME280;7866;52.280;9.500;2024-01-16T16:23:59;99346.06;;;0.86;94.03
15529;BME280;7866;52.280;9.500;2024-01-16T16:29:01;99342.72;;;0.84;93.40
15529;BME280;7866;52.280;9.500;2024-01-16T16:34:06;99335.09;;;0.81;93.28
15529;BME280;7866;52.280;9.500;2024-01-16T16:39:08;99332.97;;;0.74;92.66
15529;BME280;7866;52.280;9.500;2024-01-16T16:44:10;99336.84;;;0.70;93.05
15529;BME280;7866;52.280;9.500;2024-01-16T16:49:13;99333.69;;;0.77;92.77
15529;BME280;7866;52.280;9.500;2024-01-16T16:54:14;99351.69;;;0.71;92.48
15529;BME280;7866;52.280;9.500;2024-01-16T16:59:16;99346.13;;;0.65;92.45
15529;BME280;7866;52.280;9.500;2024-01-16T17:04:19;99355.19;;;0.72;92.03
15529;BME280;7866;52.280;9.500;2024-01-16T17:09:20;99354.84;;;0.65;91.70
15529;BME280;7866;52.280;9.500;2024-01-16T17:14:22;99363.44;;;0.67;91.49
15529;BME280;7866;52.280;9.500;2024-01-16T17:19:26;99355.28;;;0.70;91.43
15529;BME280;7866;52.280;9.500;2024-01-16T17:24:27;99355.94;;;0.63;91.04
15529;BME280;7866;52.280;9.500;2024-01-16T17:29:29;99348.75;;;0.65;91.33
15529;BME280;7866;52.280;9.500;2024-01-16T17:34:32;99356.91;;;0.62;90.40
15529;BME280;7866;52.280;9.500;2024-01-16T17:39:34;99369.69;;;0.66;90.54
15529;BME280;7866;52.280;9.500;2024-01-16T17:44:45;99371.00;;;0.72;89.54
15529;BME280;7866;52.280;9.500;2024-01-16T17:49:48;99366.25;;;0.76;89.24
15529;BME280;7866;52.280;9.500;2024-01-16T17:54:50;99361.53;;;0.69;88.78
15529;BME280;7866;52.280;9.500;2024-01-16T17:59:52;99363.19;;;0.70;88.77
15529;BME280;7866;52.280;9.500;2024-01-16T18:04:55;99359.28;;;0.65;87.27
15529;BME280;7866;52.280;9.500;2024-01-16T18:09:57;99351.25;;;0.66;87.81
15529;BME280;7866;52.280;9.500;2024-01-16T18:14:59;99353.38;;;0.52;86.69
15529;BME280;7866;52.280;9.500;2024-01-16T18:20:02;99358.00;;;0.59;86.36
15529;BME280;7866;52.280;9.500;2024-01-16T18:25:08;99359.22;;;0.55;86.86
15529;BME280;7866;52.280;9.500;2024-01-16T18:30:11;99346.41;;;0.41;86.08
15529;BME280;7866;52.280;9.500;2024-01-16T18:35:16;99349.28;;;0.38;86.39
15529;BME280;7866;52.280;9.500;2024-01-16T18:40:19;99342.84;;;0.31;85.96
15529;BME280;7866;52.280;9.500;2024-01-16T18:45:21;99336.16;;;0.27;85.76
15529;BME280;7866;52.280;9.500;2024-01-16T18:50:25;99337.91;;;0.16;85.71
15529;BME280;7866;52.280;9.500;2024-01-16T18:55:26;99330.13;;;0.15;85.75
15529;BME280;7866;52.280;9.500;2024-01-16T19:00:28;99325.31;;;0.20;85.42
15529;BME280;7866;52.280;9.500;2024-01-16T19:05:31;99343.03;;;0.18;85.85
15529;BME280;7866;52.280;9.500;2024-01-16T19:10:34;99337.19;;;0.14;84.67
15529;BME280;7866;52.280;9.500;2024-01-16T19:15:36;99337.00;;;0.06;84.32
15529;BME280;7866;52.280;9.500;2024-01-16T19:20:39;99338.06;;;0.04;84.71
15529;BME280;7866;52.280;9.500;2024-01-16T19:25:41;99340.16;;;0.00;84.38
15529;BME280;7866;52.280;9.500;2024-01-16T19:30:42;99352.78;;;0.06;84.50
15529;BME280;7866;52.280;9.500;2024-01-16T19:35:47;99346.94;;;0.03;85.48
15529;BME280;7866;52.280;9.500;2024-01-16T19:40:49;99331.09;;;-0.07;84.28
15529;BME280;7866;52.280;9.500;2024-01-16T19:45:51;99335.19;;;-0.14;83.78
15529;BME280;7866;52.280;9.500;2024-01-16T19:50:54;99336.53;;;-0.20;84.17
15529;BME280;7866;52.280;9.500;2024-01-16T19:55:57;99340.44;;;-0.14;84.01
15529;BME280;7866;52.280;9.500;2024-01-16T20:00:59;99343.44;;;-0.19;84.13
15529;BME280;7866;52.280;9.500;2024-01-16T20:06:04;99335.94;;;-0.23;83.45
15529;BME280;7866;52.280;9.500;2024-01-16T20:11:06;99320.88;;;-0.33;84.67
15529;BME280;7866;52.280;9.500;2024-01-16T20:16:08;99312.28;;;-0.35;84.00
15529;BME280;7866;52.280;9.500;2024-01-16T20:21:12;99308.94;;;-0.37;84.13
15529;BME280;7866;52.280;9.500;2024-01-16T20:26:13;99301.66;;;-0.44;84.84
15529;BME280;7866;52.280;9.500;2024-01-16T20:31:15;99291.28;;;-0.46;84.67
15529;BME280;7866;52.280;9.500;2024-01-16T20:36:18;99282.31;;;-0.43;84.34
15529;BME280;7866;52.280;9.500;2024-01-16T20:41:20;99281.16;;;-0.51;83.31
15529;BME280;7866;52.280;9.500;2024-01-16T20:46:22;99273.94;;;-0.48;84.66
15529;BME280;7866;52.280;9.500;2024-01-16T20:51:25;99264.16;;;-0.46;84.97
15529;BME280;7866;52.280;9.500;2024-01-16T20:56:29;99246.16;;;-0.62;84.92
15529;BME280;7866;52.280;9.500;2024-01-16T21:01:30;99240.91;;;-0.62;83.92
15529;BME280;7866;52.280;9.500;2024-01-16T21:06:34;99238.06;;;-0.70;84.03
15529;BME280;7866;52.280;9.500;2024-01-16T21:11:41;99228.53;;;-0.71;84.42
15529;BME280;7866;52.280;9.500;2024-01-16T21:16:42;99227.66;;;-0.72;83.62
15529;BME280;7866;52.280;9.500;2024-01-16T21:21:45;99218.03;;;-0.83;82.42
15529;BME280;7866;52.280;9.500;2024-01-16T21:26:48;99214.22;;;-0.79;82.58
15529;BME280;7866;52.280;9.500;2024-01-16T21:31:49;99208.75;;;-0.87;82.22
15529;BME280;7866;52.280;9.500;2024-01-16T21:36:54;99210.03;;;-0.81;83.30
15529;BME280;7866;52.280;9.500;2024-01-16T21:41:56;99214.06;;;-0.77;83.38
15529;BME280;7866;52.280;9.500;2024-01-16T21:46:58;99206.44;;;-0.80;83.31
15529;BME280;7866;52.280;9.500;2024-01-16T21:52:01;99196.78;;;-0.80;83.28
15529;BME280;7866;52.280;9.500;2024-01-16T21:57:03;99185.97;;;-0.77;82.61
15529;BME280;7866;52.280;9.500;2024-01-16T22:02:06;99184.25;;;-0.87;82.27
15529;BME280;7866;52.280;9.500;2024-01-16T22:07:11;99167.63;;;-0.88;81.70
15529;BME280;7866;52.280;9.500;2024-01-16T22:12:13;99170.25;;;-0.88;82.92
15529;BME280;7866;52.280;9.500;2024-01-16T22:17:14;99158.47;;;-0.93;82.16
15529;BME280;7866;52.280;9.500;2024-01-16T22:22:18;99171.13;;;-0.87;81.98
15529;BME280;7866;52.280;9.500;2024-01-16T22:27:20;99172.63;;;-0.85;81.38
15529;BME280;7866;52.280;9.500;2024-01-16T22:32:23;99160.72;;;-0.89;83.29
15529;BME280;7866;52.280;9.500;2024-01-16T22:37:26;99155.97;;;-0.95;81.02
15529;BME280;7866;52.280;9.500;2024-01-16T22:42:29;99139.88;;;-1.02;81.41
15529;BME280;7866;52.280;9.500;2024-01-16T22:47:31;99122.44;;;-1.03;81.77
15529;BME280;7866;52.280;9.500;2024-01-16T22:52:35;99105.22;;;-0.95;80.75
15529;BME280;7866;52.280;9.500;2024-01-16T22:57:37;99102.69;;;-0.97;80.88
15529;BME280;7866;52.280;9.500;2024-01-16T23:02:38;99087.28;;;-0.90;80.50
15529;BME280;7866;52.280;9.500;2024-01-16T23:07:41;99080.47;;;-0.93;80.73
15529;BME280;7866;52.280;9.500;2024-01-16T23:12:44;99060.41;;;-0.94;80.43
15529;BME280;7866;52.280;9.500;2024-01-16T23:17:46;99046.09;;;-1.01;79.88
15529;BME280;7866;52.280;9.500;2024-01-16T23:22:49;99043.41;;;-0.90;79.42
15529;BME280;7866;52.280;9.500;2024-01-16T23:27:51;99034.13;;;-0.94;79.44
15529;BME280;7866;52.280;9.500;2024-01-16T23:32:53;99031.75;;;-0.97;80.45
15529;BME280;7866;52.280;9.500;2024-01-16T23:37:56;99020.41;;;-0.97;79.59
15529;BME280;7866;52.280;9.500;2024-01-16T23:42:59;99014.56;;;-1.01;80.30
15529;BME280;7866;52.280;9.500;2024-01-16T23:48:01;99003.81;;;-0.98;80.02
15529;BME280;7866;52.280;9.500;2024-01-16T23:53:05;98989.03;;;-0.99;79.71
15529;BME280;7866;52.280;9.500;2024-01-16T23:58:07;98981.66;;;-1.05;78.51
